AirNav   Everest Fuels
 
 712 users online  

1MU9 Nielsens Med Evac Heliport
Saint Charles, Missouri, USA

GOING TO SAINT CHARLES?


FAA INFORMATION EFFECTIVE 18 JUNE 2020

Location

FAA Identifier: 1MU9
Lat/Long: 38-56-07.1760N 090-28-35.4210W
38-56.119600N 090-28.590350W
38.9353267,-90.4765058
(estimated)
Elevation: 425 ft. / 130 m (estimated)
Variation: 01E (1995)
From city: 6 miles N of SAINT CHARLES, MO
Time zone: UTC -5 (UTC -6 during Standard Time)
Zip code: 62037

Heliport Operations

Heliport use: Private use, FOR MEDICAL USE ONLY.
Activation date: 04/1997
Control tower: no
ARTCC: KANSAS CITY CENTER
FSS: SAINT LOUIS FLIGHT SERVICE STATION
Attendance: UNATNDD
Segmented circle: no

Heliport Communications

WX ASOS at SET (2.2 nm E): 118.075 (636-250-4590)
WX ASOS at STL (12 nm SE): 125.025 (314-890-4790)
WX ASOS at SUS (18 nm SW): 134.8 (314-890-7255)

Nearby radio navigation aids

VOR radial/distance  VOR name  Freq  Var
STLr002/4.5ST LOUIS VORTAC117.4001E
FTZr053/27.3FORISTELL VORTAC110.8005E
TOYr290/28.6TROY VORTAC116.0004E

 
NDB name  Hdg/Dist  Freq  Var  ID
CIVIC MEMORIAL278/19.826301WCVM -.-. ...- --

Heliport Services

Runway Information

Helipad H1

Dimensions: 100 x 100 ft. / 30 x 30 m
Surface: turf
Traffic pattern: leftleft

Heliport Ownership and Management from official FAA records

Ownership: Privately-owned
Owner: CHERRY POINT LLC
9024 ST CHARLES ROCK ROAD
ST LOUIS, MO 63114
Phone 314-490-4433
Manager: SCOTT NIELSEN
9024 ST CHARLES ROCK ROAD
ST LOUIS, MO 63114
Phone 314-490-4433

Additional Remarks

A52-H1 50 FT TREES 150 FT S OF HELIPORT.
FOR CD CTC ST LOUIS APCH AT 314-890-1018.

Instrument Procedures

There are no published instrument procedures at 1MU9.

Some nearby airports with instrument procedures:

KSET - St Charles County Smartt Airport (2 nm E)
KSTL - St Louis Lambert International Airport (12 nm SE)
1H0 - Creve Coeur Airport (13 nm S)
KSUS - Spirit of St Louis Airport (18 nm SW)
KALN - St Louis Regional Airport (20 nm E)
 
Loc | Ops | Rwys | IFR | FBO | Links
Com | Nav | Svcs | Stats | Notes
Area around 1MU9 (Nielsens Med Evac Heliport)
 
Road maps at: MapQuest Bing Google
 
Aerial photo
No photo
 
Sectional chart

 
Airport distance calculator
Flying to Nielsens Med Evac Heliport? Find the distance to fly.

From to 1MU9

Sunrise and sunset
Times for 04-Jul-2020
 Local
(UTC-5)
 Zulu
(UTC)
Morning civil twilight05:1110:11
Sunrise05:4310:43
Sunset20:3001:30
Evening civil twilight21:0102:01

Current date and time
Zulu (UTC)  05-Jul-2020 01:31:59
Local (UTC-5)  04-Jul-2020 20:31:59
 
METAR
KSET 
2nm E 
050054Z AUTO 06006KT 10SM CLR 29/21 A2993 RMK AO2 SLP130 T02940211
KSTL 
12nm SE 
050051Z 05005KT 10SM FEW060 BKN250 30/19 A2995 RMK AO2 SLP128 T03000194
KSUS 
19nm SW 
050054Z AUTO 06007KT 10SM SCT065 29/19 A2993 RMK AO2 SLP125 T02890194
TAF
KSTL 
12nm SE 
042111Z 0421/0524 08010G18KT P6SM BKN060 BKN250 FM050100 07006KT P6SM SCT250 FM051700 09005KT P6SM SCT050
KSUS 
19nm SW 
041722Z 0418/0518 10005KT P6SM BKN060 BKN250 FM050100 VRB04KT P6SM FEW200 TEMPO 0510/0512 5SM BR
NOTAMs
Click for the latest NOTAMs
NOTAMs are issued by the DoD/FAA and will open in a separate window not controlled by AirNav.

 

 
 

Would you like to see your business listed on this page?

 If your business provides an interesting product or service to pilots, flight crews, aircraft, or users of the Nielsens Med Evac Heliport, you should consider listing it here.  To start the listing process, click on the button below
 
Add a business
 

Other Pages about Nielsens Med Evac Heliport

Update a link
 
Copyright © AirNav, LLC. All rights reserved. Privacy Policy  Contact